Terminal Aerodrome Forecast
Issued by NWS

Home | Current Version | Previous Version | Text Only | Print | Product List | Glossary On
Versions: 1 2 3 4 5 6 7 8 9 10 11 12 13 14 15 16 17 18 19 20 21 22 23 24 25 26 27 28 29
000
FTUS42 KCAE 031737
TAFDNL
TAF
KDNL 031737Z 0318/0418 26009G16KT P6SM SCT020 BKN040 BKN110
      TEMPO 0318/0320 3SM +TSRA BR SCT015 BKN025CB OVC060
     FM032000 25010KT P6SM VCTS SCT030 BKN050CB BKN110
     FM040400 26006KT P6SM SCT040 BKN080
     FM040900 29005KT P6SM SCT040 BKN100=

USA.gov is the U.S. government's official web portal to all federal, state and local government web resources and services.